sensor_id;sensor_type;location;lat;lon;timestamp;P1;durP1;ratioP1;P2;durP2;ratioP2
44428;SDS011;30134;47.866;-4.222;2024-03-02T00:02:42;4.32;;;2.63;;
44428;SDS011;30134;47.866;-4.222;2024-03-02T00:05:19;4.53;;;2.67;;
44428;SDS011;30134;47.866;-4.222;2024-03-02T00:07:53;4.63;;;2.85;;
44428;SDS011;30134;47.866;-4.222;2024-03-02T00:10:22;4.18;;;2.47;;
44428;SDS011;30134;47.866;-4.222;2024-03-02T00:12:54;4.72;;;2.72;;
44428;SDS011;30134;47.866;-4.222;2024-03-02T00:18:20;6.30;;;2.90;;
44428;SDS011;30134;47.866;-4.222;2024-03-02T00:20:56;4.35;;;2.53;;
44428;SDS011;30134;47.866;-4.222;2024-03-02T00:23:24;3.60;;;2.20;;
44428;SDS011;30134;47.866;-4.222;2024-03-02T00:25:54;6.93;;;2.42;;
44428;SDS011;30134;47.866;-4.222;2024-03-02T00:28:31;4.97;;;2.80;;
44428;SDS011;30134;47.866;-4.222;2024-03-02T00:31:02;4.95;;;2.45;;
44428;SDS011;30134;47.866;-4.222;2024-03-02T00:33:34;4.20;;;2.33;;
44428;SDS011;30134;47.866;-4.222;2024-03-02T00:36:05;3.42;;;2.10;;
44428;SDS011;30134;47.866;-4.222;2024-03-02T00:38:33;4.10;;;1.75;;
44428;SDS011;30134;47.866;-4.222;2024-03-02T00:41:07;3.10;;;1.98;;
44428;SDS011;30134;47.866;-4.222;2024-03-02T00:46:22;4.00;;;2.45;;
44428;SDS011;30134;47.866;-4.222;2024-03-02T00:48:53;8.80;;;2.30;;
44428;SDS011;30134;47.866;-4.222;2024-03-02T00:51:22;2.92;;;1.55;;
44428;SDS011;30134;47.866;-4.222;2024-03-02T00:53:50;3.83;;;1.90;;
44428;SDS011;30134;47.866;-4.222;2024-03-02T00:56:20;4.90;;;2.13;;
44428;SDS011;30134;47.866;-4.222;2024-03-02T00:58:46;3.05;;;2.10;;
44428;SDS011;30134;47.866;-4.222;2024-03-02T01:01:18;3.38;;;2.25;;
44428;SDS011;30134;47.866;-4.222;2024-03-02T01:03:45;5.10;;;2.28;;
44428;SDS011;30134;47.866;-4.222;2024-03-02T01:06:11;5.30;;;2.42;;
44428;SDS011;30134;47.866;-4.222;2024-03-02T01:08:37;3.80;;;1.95;;
44428;SDS011;30134;47.866;-4.222;2024-03-02T01:11:05;3.03;;;1.67;;
44428;SDS011;30134;47.866;-4.222;2024-03-02T01:13:31;2.70;;;1.73;;
44428;SDS011;30134;47.866;-4.222;2024-03-02T01:16:03;3.90;;;1.98;;
44428;SDS011;30134;47.866;-4.222;2024-03-02T01:18:29;5.05;;;2.30;;
44428;SDS011;30134;47.866;-4.222;2024-03-02T01:20:56;2.17;;;1.55;;
44428;SDS011;30134;47.866;-4.222;2024-03-02T01:23:25;3.22;;;1.60;;
44428;SDS011;30134;47.866;-4.222;2024-03-02T01:25:51;4.78;;;1.88;;
44428;SDS011;30134;47.866;-4.222;2024-03-02T01:28:18;6.13;;;2.60;;
44428;SDS011;30134;47.866;-4.222;2024-03-02T01:30:45;3.70;;;1.85;;
44428;SDS011;30134;47.866;-4.222;2024-03-02T01:33:12;3.20;;;1.70;;
44428;SDS011;30134;47.866;-4.222;2024-03-02T01:35:38;3.80;;;1.67;;
44428;SDS011;30134;47.866;-4.222;2024-03-02T01:38:04;2.75;;;1.65;;
44428;SDS011;30134;47.866;-4.222;2024-03-02T01:40:36;3.60;;;1.70;;
44428;SDS011;30134;47.866;-4.222;2024-03-02T01:43:06;4.40;;;1.60;;
44428;SDS011;30134;47.866;-4.222;2024-03-02T01:45:32;2.97;;;1.40;;
44428;SDS011;30134;47.866;-4.222;2024-03-02T01:48:00;3.78;;;1.65;;
44428;SDS011;30134;47.866;-4.222;2024-03-02T01:50:36;3.65;;;1.77;;
44428;SDS011;30134;47.866;-4.222;2024-03-02T01:53:02;3.20;;;1.73;;
44428;SDS011;30134;47.866;-4.222;2024-03-02T01:55:28;3.63;;;2.45;;
44428;SDS011;30134;47.866;-4.222;2024-03-02T01:57:55;2.00;;;1.23;;
44428;SDS011;30134;47.866;-4.222;2024-03-02T02:00:21;2.65;;;1.65;;
44428;SDS011;30134;47.866;-4.222;2024-03-02T02:02:50;2.85;;;1.40;;
44428;SDS011;30134;47.866;-4.222;2024-03-02T02:05:16;3.33;;;1.75;;
44428;SDS011;30134;47.866;-4.222;2024-03-02T02:07:43;3.50;;;1.70;;
44428;SDS011;30134;47.866;-4.222;2024-03-02T02:10:12;3.20;;;1.77;;
44428;SDS011;30134;47.866;-4.222;2024-03-02T02:12:55;3.95;;;1.80;;
44428;SDS011;30134;47.866;-4.222;2024-03-02T02:15:30;2.85;;;1.77;;
44428;SDS011;30134;47.866;-4.222;2024-03-02T02:18:03;3.03;;;1.88;;
44428;SDS011;30134;47.866;-4.222;2024-03-02T02:20:30;1.63;;;1.17;;
44428;SDS011;30134;47.866;-4.222;2024-03-02T02:23:02;3.88;;;1.58;;
44428;SDS011;30134;47.866;-4.222;2024-03-02T02:25:30;3.30;;;1.48;;
44428;SDS011;30134;47.866;-4.222;2024-03-02T02:27:56;3.25;;;1.50;;
44428;SDS011;30134;47.866;-4.222;2024-03-02T02:30:24;2.28;;;1.33;;
44428;SDS011;30134;47.866;-4.222;2024-03-02T02:32:56;3.03;;;1.60;;
44428;SDS011;30134;47.866;-4.222;2024-03-02T02:35:23;3.55;;;1.60;;
44428;SDS011;30134;47.866;-4.222;2024-03-02T02:37:49;2.95;;;1.98;;
44428;SDS011;30134;47.866;-4.222;2024-03-02T02:40:17;1.85;;;1.30;;
44428;SDS011;30134;47.866;-4.222;2024-03-02T02:42:46;3.58;;;1.60;;
44428;SDS011;30134;47.866;-4.222;2024-03-02T02:45:12;3.00;;;1.58;;
44428;SDS011;30134;47.866;-4.222;2024-03-02T02:47:39;2.97;;;1.42;;
44428;SDS011;30134;47.866;-4.222;2024-03-02T02:50:10;2.22;;;1.40;;
44428;SDS011;30134;47.866;-4.222;2024-03-02T02:52:38;2.92;;;1.58;;
44428;SDS011;30134;47.866;-4.222;2024-03-02T02:55:07;5.03;;;1.80;;
44428;SDS011;30134;47.866;-4.222;2024-03-02T02:57:38;2.30;;;1.30;;
44428;SDS011;30134;47.866;-4.222;2024-03-02T03:00:13;2.88;;;1.45;;
44428;SDS011;30134;47.866;-4.222;2024-03-02T03:02:47;4.90;;;1.92;;
44428;SDS011;30134;47.866;-4.222;2024-03-02T03:05:15;2.83;;;1.40;;
44428;SDS011;30134;47.866;-4.222;2024-03-02T03:07:41;2.28;;;1.30;;
44428;SDS011;30134;47.866;-4.222;2024-03-02T03:10:09;3.15;;;1.58;;
44428;SDS011;30134;47.866;-4.222;2024-03-02T03:12:35;4.13;;;1.20;;
44428;SDS011;30134;47.866;-4.222;2024-03-02T03:15:02;2.75;;;1.23;;
44428;SDS011;30134;47.866;-4.222;2024-03-02T03:17:29;2.13;;;1.30;;
44428;SDS011;30134;47.866;-4.222;2024-03-02T03:20:02;2.25;;;1.38;;
44428;SDS011;30134;47.866;-4.222;2024-03-02T03:22:30;1.88;;;1.20;;
44428;SDS011;30134;47.866;-4.222;2024-03-02T03:24:57;2.40;;;1.38;;
44428;SDS011;30134;47.866;-4.222;2024-03-02T03:27:23;2.63;;;1.20;;
44428;SDS011;30134;47.866;-4.222;2024-03-02T03:29:49;1.95;;;1.20;;
44428;SDS011;30134;47.866;-4.222;2024-03-02T03:32:15;3.65;;;1.70;;
44428;SDS011;30134;47.866;-4.222;2024-03-02T03:34:41;2.58;;;1.23;;
44428;SDS011;30134;47.866;-4.222;2024-03-02T03:37:07;3.72;;;1.40;;
44428;SDS011;30134;47.866;-4.222;2024-03-02T03:39:34;2.35;;;1.20;;
44428;SDS011;30134;47.866;-4.222;2024-03-02T03:42:01;3.00;;;1.42;;
44428;SDS011;30134;47.866;-4.222;2024-03-02T03:44:27;3.55;;;1.77;;
44428;SDS011;30134;47.866;-4.222;2024-03-02T03:46:53;3.83;;;1.45;;
44428;SDS011;30134;47.866;-4.222;2024-03-02T03:49:19;2.67;;;1.60;;
44428;SDS011;30134;47.866;-4.222;2024-03-02T03:51:44;2.28;;;1.10;;
44428;SDS011;30134;47.866;-4.222;2024-03-02T03:54:10;1.75;;;1.27;;
44428;SDS011;30134;47.866;-4.222;2024-03-02T03:56:37;2.63;;;0.90;;
44428;SDS011;30134;47.866;-4.222;2024-03-02T03:59:03;1.13;;;0.80;;
44428;SDS011;30134;47.866;-4.222;2024-03-02T04:01:30;2.58;;;1.40;;
44428;SDS011;30134;47.866;-4.222;2024-03-02T04:03:56;4.47;;;1.10;;
44428;SDS011;30134;47.866;-4.222;2024-03-02T04:06:23;2.30;;;1.23;;
44428;SDS011;30134;47.866;-4.222;2024-03-02T04:08:49;3.55;;;1.40;;
44428;SDS011;30134;47.866;-4.222;2024-03-02T04:11:15;3.83;;;1.80;;
44428;SDS011;30134;47.866;-4.222;2024-03-02T04:13:41;3.78;;;1.45;;
44428;SDS011;30134;47.866;-4.222;2024-03-02T04:16:07;2.25;;;1.15;;
44428;SDS011;30134;47.866;-4.222;2024-03-02T04:18:33;3.80;;;1.40;;
44428;SDS011;30134;47.866;-4.222;2024-03-02T04:21:05;2.38;;;1.30;;
44428;SDS011;30134;47.866;-4.222;2024-03-02T04:23:31;3.33;;;1.48;;
44428;SDS011;30134;47.866;-4.222;2024-03-02T04:25:57;2.55;;;1.35;;
44428;SDS011;30134;47.866;-4.222;2024-03-02T04:28:23;3.72;;;1.27;;
44428;SDS011;30134;47.866;-4.222;2024-03-02T04:30:50;1.60;;;1.17;;
44428;SDS011;30134;47.866;-4.222;2024-03-02T04:33:16;2.55;;;1.23;;
44428;SDS011;30134;47.866;-4.222;2024-03-02T04:35:41;1.85;;;0.90;;
44428;SDS011;30134;47.866;-4.222;2024-03-02T04:38:07;1.52;;;1.10;;
44428;SDS011;30134;47.866;-4.222;2024-03-02T04:40:33;3.25;;;1.30;;
44428;SDS011;30134;47.866;-4.222;2024-03-02T04:42:59;2.88;;;1.25;;
44428;SDS011;30134;47.866;-4.222;2024-03-02T04:45:25;3.65;;;1.50;;
44428;SDS011;30134;47.866;-4.222;2024-03-02T04:47:51;2.33;;;1.58;;
44428;SDS011;30134;47.866;-4.222;2024-03-02T04:50:17;3.15;;;1.13;;
44428;SDS011;30134;47.866;-4.222;2024-03-02T04:52:44;2.28;;;1.40;;
44428;SDS011;30134;47.866;-4.222;2024-03-02T04:55:10;3.17;;;1.30;;
44428;SDS011;30134;47.866;-4.222;2024-03-02T04:57:42;2.50;;;1.38;;
44428;SDS011;30134;47.866;-4.222;2024-03-02T05:00:09;1.67;;;0.80;;
44428;SDS011;30134;47.866;-4.222;2024-03-02T05:02:35;4.35;;;1.45;;
44428;SDS011;30134;47.866;-4.222;2024-03-02T05:05:01;2.80;;;1.10;;
44428;SDS011;30134;47.866;-4.222;2024-03-02T05:07:28;2.35;;;1.10;;
44428;SDS011;30134;47.866;-4.222;2024-03-02T05:09:54;2.17;;;0.98;;
44428;SDS011;30134;47.866;-4.222;2024-03-02T05:12:20;2.47;;;1.00;;
44428;SDS011;30134;47.866;-4.222;2024-03-02T05:15:01;1.98;;;0.77;;
44428;SDS011;30134;47.866;-4.222;2024-03-02T05:17:30;1.20;;;0.88;;
44428;SDS011;30134;47.866;-4.222;2024-03-02T05:19:56;1.67;;;0.70;;
44428;SDS011;30134;47.866;-4.222;2024-03-02T05:22:28;3.10;;;1.10;;
44428;SDS011;30134;47.866;-4.222;2024-03-02T05:24:54;1.58;;;1.05;;
44428;SDS011;30134;47.866;-4.222;2024-03-02T05:27:21;1.17;;;0.80;;
44428;SDS011;30134;47.866;-4.222;2024-03-02T05:29:47;1.95;;;1.05;;
44428;SDS011;30134;47.866;-4.222;2024-03-02T05:32:13;1.52;;;0.93;;
44428;SDS011;30134;47.866;-4.222;2024-03-02T05:34:39;1.40;;;0.90;;
44428;SDS011;30134;47.866;-4.222;2024-03-02T05:37:05;1.67;;;0.70;;
44428;SDS011;30134;47.866;-4.222;2024-03-02T05:39:31;3.05;;;1.02;;
44428;SDS011;30134;47.866;-4.222;2024-03-02T05:41:57;2.70;;;1.13;;
44428;SDS011;30134;47.866;-4.222;2024-03-02T05:44:23;1.42;;;0.93;;
44428;SDS011;30134;47.866;-4.222;2024-03-02T05:46:49;1.20;;;0.90;;
44428;SDS011;30134;47.866;-4.222;2024-03-02T05:49:15;2.25;;;0.90;;
44428;SDS011;30134;47.866;-4.222;2024-03-02T05:51:41;1.85;;;1.20;;
44428;SDS011;30134;47.866;-4.222;2024-03-02T05:54:07;1.33;;;0.80;;
44428;SDS011;30134;47.866;-4.222;2024-03-02T05:56:33;1.17;;;0.90;;
44428;SDS011;30134;47.866;-4.222;2024-03-02T05:58:59;2.00;;;0.90;;
44428;SDS011;30134;47.866;-4.222;2024-03-02T06:01:47;1.50;;;1.08;;
44428;SDS011;30134;47.866;-4.222;2024-03-02T06:04:17;1.45;;;0.75;;
44428;SDS011;30134;47.866;-4.222;2024-03-02T06:06:43;0.95;;;0.63;;
44428;SDS011;30134;47.866;-4.222;2024-03-02T06:09:09;1.65;;;0.80;;
44428;SDS011;30134;47.866;-4.222;2024-03-02T06:11:38;1.85;;;0.77;;
44428;SDS011;30134;47.866;-4.222;2024-03-02T06:14:05;2.72;;;1.13;;
44428;SDS011;30134;47.866;-4.222;2024-03-02T06:16:33;1.52;;;0.98;;
44428;SDS011;30134;47.866;-4.222;2024-03-02T06:19:00;1.10;;;0.70;;
44428;SDS011;30134;47.866;-4.222;2024-03-02T06:21:27;2.85;;;0.70;;
44428;SDS011;30134;47.866;-4.222;2024-03-02T06:23:59;1.60;;;1.07;;
44428;SDS011;30134;47.866;-4.222;2024-03-02T06:26:26;1.33;;;0.70;;
44428;SDS011;30134;47.866;-4.222;2024-03-02T06:28:54;2.22;;;1.00;;
44428;SDS011;30134;47.866;-4.222;2024-03-02T06:31:20;2.28;;;0.90;;
44428;SDS011;30134;47.866;-4.222;2024-03-02T06:33:45;1.55;;;0.80;;
44428;SDS011;30134;47.866;-4.222;2024-03-02T06:36:11;1.67;;;0.73;;
44428;SDS011;30134;47.866;-4.222;2024-03-02T06:38:38;1.38;;;0.80;;
44428;SDS011;30134;47.866;-4.222;2024-03-02T06:41:05;0.90;;;0.65;;
44428;SDS011;30134;47.866;-4.222;2024-03-02T06:43:31;1.75;;;1.08;;
44428;SDS011;30134;47.866;-4.222;2024-03-02T06:45:57;2.03;;;0.85;;
44428;SDS011;30134;47.866;-4.222;2024-03-02T06:48:23;1.27;;;0.80;;
44428;SDS011;30134;47.866;-4.222;2024-03-02T06:50:49;1.35;;;0.68;;
44428;SDS011;30134;47.866;-4.222;2024-03-02T06:53:17;0.90;;;0.47;;
44428;SDS011;30134;47.866;-4.222;2024-03-02T06:55:44;1.48;;;0.85;;
44428;SDS011;30134;47.866;-4.222;2024-03-02T06:58:12;0.73;;;0.50;;
44428;SDS011;30134;47.866;-4.222;2024-03-02T07:00:40;0.93;;;0.70;;
44428;SDS011;30134;47.866;-4.222;2024-03-02T07:03:07;1.52;;;0.85;;
44428;SDS011;30134;47.866;-4.222;2024-03-02T07:05:33;1.83;;;0.80;;
44428;SDS011;30134;47.866;-4.222;2024-03-02T07:07:59;1.35;;;0.70;;
44428;SDS011;30134;47.866;-4.222;2024-03-02T07:10:26;0.98;;;0.60;;
44428;SDS011;30134;47.866;-4.222;2024-03-02T07:12:52;1.48;;;0.88;;
44428;SDS011;30134;47.866;-4.222;2024-03-02T07:15:18;1.20;;;0.90;;
44428;SDS011;30134;47.866;-4.222;2024-03-02T07:17:50;1.55;;;0.80;;
44428;SDS011;30134;47.866;-4.222;2024-03-02T07:20:16;0.70;;;0.65;;
44428;SDS011;30134;47.866;-4.222;2024-03-02T07:22:42;2.00;;;0.93;;
44428;SDS011;30134;47.866;-4.222;2024-03-02T07:25:14;0.90;;;0.77;;
44428;SDS011;30134;47.866;-4.222;2024-03-02T07:27:40;0.70;;;0.70;;
44428;SDS011;30134;47.866;-4.222;2024-03-02T07:30:07;1.13;;;0.82;;
44428;SDS011;30134;47.866;-4.222;2024-03-02T07:32:33;1.10;;;0.70;;
44428;SDS011;30134;47.866;-4.222;2024-03-02T07:34:59;1.42;;;0.75;;
44428;SDS011;30134;47.866;-4.222;2024-03-02T07:37:26;1.83;;;0.80;;
44428;SDS011;30134;47.866;-4.222;2024-03-02T07:39:52;0.50;;;0.47;;
44428;SDS011;30134;47.866;-4.222;2024-03-02T07:42:21;1.48;;;0.80;;
44428;SDS011;30134;47.866;-4.222;2024-03-02T07:44:47;2.78;;;0.60;;
44428;SDS011;30134;47.866;-4.222;2024-03-02T07:47:13;1.50;;;0.80;;
44428;SDS011;30134;47.866;-4.222;2024-03-02T07:49:39;2.08;;;0.90;;
44428;SDS011;30134;47.866;-4.222;2024-03-02T07:52:05;1.85;;;0.80;;
44428;SDS011;30134;47.866;-4.222;2024-03-02T07:54:32;1.75;;;0.77;;
44428;SDS011;30134;47.866;-4.222;2024-03-02T07:56:58;1.30;;;0.82;;
44428;SDS011;30134;47.866;-4.222;2024-03-02T07:59:31;2.17;;;0.70;;
44428;SDS011;30134;47.866;-4.222;2024-03-02T08:02:00;2.03;;;1.05;;
44428;SDS011;30134;47.866;-4.222;2024-03-02T08:04:26;2.08;;;0.77;;
44428;SDS011;30134;47.866;-4.222;2024-03-02T08:06:52;8.18;;;1.02;;
44428;SDS011;30134;47.866;-4.222;2024-03-02T08:09:19;1.27;;;0.65;;
44428;SDS011;30134;47.866;-4.222;2024-03-02T08:11:45;2.15;;;0.95;;
44428;SDS011;30134;47.866;-4.222;2024-03-02T08:14:11;1.42;;;0.80;;
44428;SDS011;30134;47.866;-4.222;2024-03-02T08:16:37;1.38;;;0.90;;
44428;SDS011;30134;47.866;-4.222;2024-03-02T08:19:03;2.03;;;0.90;;
44428;SDS011;30134;47.866;-4.222;2024-03-02T08:21:29;1.95;;;0.80;;
44428;SDS011;30134;47.866;-4.222;2024-03-02T08:23:57;1.63;;;0.90;;
44428;SDS011;30134;47.866;-4.222;2024-03-02T08:26:29;2.13;;;1.17;;
44428;SDS011;30134;47.866;-4.222;2024-03-02T08:28:57;2.00;;;1.00;;
44428;SDS011;30134;47.866;-4.222;2024-03-02T08:31:24;1.30;;;0.70;;
44428;SDS011;30134;47.866;-4.222;2024-03-02T08:33:50;1.38;;;0.90;;
44428;SDS011;30134;47.866;-4.222;2024-03-02T08:36:16;0.95;;;0.70;;
44428;SDS011;30134;47.866;-4.222;2024-03-02T08:38:42;2.42;;;1.05;;
44428;SDS011;30134;47.866;-4.222;2024-03-02T08:41:09;2.88;;;0.90;;
44428;SDS011;30134;47.866;-4.222;2024-03-02T08:43:38;2.75;;;0.90;;
44428;SDS011;30134;47.866;-4.222;2024-03-02T08:46:06;1.05;;;0.75;;
44428;SDS011;30134;47.866;-4.222;2024-03-02T08:48:33;2.08;;;0.73;;
44428;SDS011;30134;47.866;-4.222;2024-03-02T08:50:59;1.80;;;0.65;;
44428;SDS011;30134;47.866;-4.222;2024-03-02T08:53:25;0.68;;;0.63;;
44428;SDS011;30134;47.866;-4.222;2024-03-02T08:55:51;1.02;;;0.70;;
44428;SDS011;30134;47.866;-4.222;2024-03-02T08:58:17;1.90;;;1.13;;
44428;SDS011;30134;47.866;-4.222;2024-03-02T09:00:43;2.20;;;0.80;;
44428;SDS011;30134;47.866;-4.222;2024-03-02T09:03:09;2.33;;;1.00;;
44428;SDS011;30134;47.866;-4.222;2024-03-02T09:05:35;1.48;;;0.95;;
44428;SDS011;30134;47.866;-4.222;2024-03-02T09:08:01;1.40;;;0.88;;
44428;SDS011;30134;47.866;-4.222;2024-03-02T09:10:28;1.55;;;0.80;;
44428;SDS011;30134;47.866;-4.222;2024-03-02T09:12:54;1.35;;;0.90;;
44428;SDS011;30134;47.866;-4.222;2024-03-02T09:15:20;1.23;;;0.73;;
44428;SDS011;30134;47.866;-4.222;2024-03-02T09:17:46;0.80;;;0.60;;
44428;SDS011;30134;47.866;-4.222;2024-03-02T09:20:12;1.95;;;1.10;;
44428;SDS011;30134;47.866;-4.222;2024-03-02T09:22:39;2.17;;;1.13;;
44428;SDS011;30134;47.866;-4.222;2024-03-02T09:25:05;4.20;;;1.52;;
44428;SDS011;30134;47.866;-4.222;2024-03-02T09:27:39;1.42;;;0.77;;
44428;SDS011;30134;47.866;-4.222;2024-03-02T09:30:09;3.28;;;0.82;;
44428;SDS011;30134;47.866;-4.222;2024-03-02T09:32:36;5.32;;;1.27;;
44428;SDS011;30134;47.866;-4.222;2024-03-02T09:35:02;5.32;;;1.08;;
44428;SDS011;30134;47.866;-4.222;2024-03-02T09:37:29;2.17;;;0.85;;
44428;SDS011;30134;47.866;-4.222;2024-03-02T09:39:55;3.83;;;0.95;;
44428;SDS011;30134;47.866;-4.222;2024-03-02T09:42:21;5.47;;;0.90;;
44428;SDS011;30134;47.866;-4.222;2024-03-02T09:44:48;2.17;;;0.93;;
44428;SDS011;30134;47.866;-4.222;2024-03-02T09:47:14;3.58;;;1.08;;
44428;SDS011;30134;47.866;-4.222;2024-03-02T09:49:40;3.00;;;1.13;;
44428;SDS011;30134;47.866;-4.222;2024-03-02T09:52:06;2.22;;;0.98;;
44428;SDS011;30134;47.866;-4.222;2024-03-02T09:54:33;1.77;;;0.80;;
44428;SDS011;30134;47.866;-4.222;2024-03-02T09:56:59;3.25;;;1.17;;
44428;SDS011;30134;47.866;-4.222;2024-03-02T09:59:26;2.03;;;0.88;;
44428;SDS011;30134;47.866;-4.222;2024-03-02T10:02:00;3.42;;;1.63;;
44428;SDS011;30134;47.866;-4.222;2024-03-02T10:04:28;2.35;;;1.10;;
44428;SDS011;30134;47.866;-4.222;2024-03-02T10:09:38;6.07;;;1.45;;
44428;SDS011;30134;47.866;-4.222;2024-03-02T10:12:10;3.33;;;1.33;;
44428;SDS011;30134;47.866;-4.222;2024-03-02T10:14:37;10.82;;;1.58;;
44428;SDS011;30134;47.866;-4.222;2024-03-02T10:17:05;4.50;;;1.23;;
44428;SDS011;30134;47.866;-4.222;2024-03-02T10:19:33;6.50;;;1.40;;
44428;SDS011;30134;47.866;-4.222;2024-03-02T10:22:09;4.43;;;1.20;;
44428;SDS011;30134;47.866;-4.222;2024-03-02T10:24:36;5.88;;;1.65;;
44428;SDS011;30134;47.866;-4.222;2024-03-02T10:27:15;4.22;;;1.10;;
44428;SDS011;30134;47.866;-4.222;2024-03-02T10:29:58;9.13;;;1.60;;
44428;SDS011;30134;47.866;-4.222;2024-03-02T10:32:24;6.65;;;1.27;;
44428;SDS011;30134;47.866;-4.222;2024-03-02T10:34:51;3.80;;;1.45;;
44428;SDS011;30134;47.866;-4.222;2024-03-02T10:37:17;5.10;;;1.67;;
44428;SDS011;30134;47.866;-4.222;2024-03-02T10:39:45;6.00;;;1.40;;
44428;SDS011;30134;47.866;-4.222;2024-03-02T10:42:12;10.90;;;2.42;;
44428;SDS011;30134;47.866;-4.222;2024-03-02T10:44:40;8.73;;;1.77;;
44428;SDS011;30134;47.866;-4.222;2024-03-02T10:47:08;4.65;;;1.73;;
44428;SDS011;30134;47.866;-4.222;2024-03-02T10:49:36;6.85;;;1.67;;
44428;SDS011;30134;47.866;-4.222;2024-03-02T10:52:06;8.38;;;1.73;;
44428;SDS011;30134;47.866;-4.222;2024-03-02T10:54:34;8.63;;;1.92;;
44428;SDS011;30134;47.866;-4.222;2024-03-02T10:57:04;5.57;;;1.60;;
44428;SDS011;30134;47.866;-4.222;2024-03-02T10:59:35;5.75;;;1.65;;
44428;SDS011;30134;47.866;-4.222;2024-03-02T11:02:04;6.45;;;1.80;;
44428;SDS011;30134;47.866;-4.222;2024-03-02T11:04:33;9.13;;;1.20;;
44428;SDS011;30134;47.866;-4.222;2024-03-02T11:07:04;4.07;;;1.30;;
44428;SDS011;30134;47.866;-4.222;2024-03-02T11:09:33;5.20;;;1.65;;
44428;SDS011;30134;47.866;-4.222;2024-03-02T11:12:03;6.22;;;1.48;;
44428;SDS011;30134;47.866;-4.222;2024-03-02T11:14:48;10.10;;;2.03;;
44428;SDS011;30134;47.866;-4.222;2024-03-02T11:17:19;4.22;;;1.20;;
44428;SDS011;30134;47.866;-4.222;2024-03-02T11:19:46;8.18;;;1.65;;
44428;SDS011;30134;47.866;-4.222;2024-03-02T11:22:13;5.45;;;1.02;;
44428;SDS011;30134;47.866;-4.222;2024-03-02T11:24:47;3.28;;;1.15;;
44428;SDS011;30134;47.866;-4.222;2024-03-02T11:27:14;4.20;;;1.27;;
44428;SDS011;30134;47.866;-4.222;2024-03-02T11:31:17;6.22;;;1.30;;
44428;SDS011;30134;47.866;-4.222;2024-03-02T11:33:12;5.25;;;1.42;;
44428;SDS011;30134;47.866;-4.222;2024-03-02T11:35:40;3.20;;;1.30;;
44428;SDS011;30134;47.866;-4.222;2024-03-02T11:38:09;11.27;;;1.65;;
44428;SDS011;30134;47.866;-4.222;2024-03-02T11:40:35;1.85;;;0.95;;
44428;SDS011;30134;47.866;-4.222;2024-03-02T11:43:06;5.20;;;1.08;;
44428;SDS011;30134;47.866;-4.222;2024-03-02T11:45:36;7.90;;;1.67;;
44428;SDS011;30134;47.866;-4.222;2024-03-02T11:48:08;4.75;;;1.40;;
44428;SDS011;30134;47.866;-4.222;2024-03-02T11:53:16;7.95;;;4.45;;
44428;SDS011;30134;47.866;-4.222;2024-03-02T11:55:45;10.95;;;7.13;;
44428;SDS011;30134;47.866;-4.222;2024-03-02T11:58:13;9.80;;;6.53;;
44428;SDS011;30134;47.866;-4.222;2024-03-02T12:00:45;11.05;;;6.63;;
44428;SDS011;30134;47.866;-4.222;2024-03-02T12:03:12;9.73;;;5.93;;
44428;SDS011;30134;47.866;-4.222;2024-03-02T12:05:40;10.13;;;4.90;;
44428;SDS011;30134;47.866;-4.222;2024-03-02T12:08:07;9.57;;;5.40;;
44428;SDS011;30134;47.866;-4.222;2024-03-02T12:10:34;6.55;;;4.93;;
44428;SDS011;30134;47.866;-4.222;2024-03-02T12:13:02;7.47;;;4.75;;
44428;SDS011;30134;47.866;-4.222;2024-03-02T12:15:34;7.38;;;4.35;;
44428;SDS011;30134;47.866;-4.222;2024-03-02T12:18:04;6.63;;;3.97;;
44428;SDS011;30134;47.866;-4.222;2024-03-02T12:20:31;4.70;;;3.20;;
44428;SDS011;30134;47.866;-4.222;2024-03-02T12:22:59;5.25;;;2.80;;
44428;SDS011;30134;47.866;-4.222;2024-03-02T12:25:28;7.57;;;3.45;;
44428;SDS011;30134;47.866;-4.222;2024-03-02T12:27:56;8.13;;;5.28;;
44428;SDS011;30134;47.866;-4.222;2024-03-02T12:30:31;16.67;;;9.70;;
44428;SDS011;30134;47.866;-4.222;2024-03-02T12:33:00;12.73;;;10.38;;
44428;SDS011;30134;47.866;-4.222;2024-03-02T12:35:26;14.52;;;11.18;;
44428;SDS011;30134;47.866;-4.222;2024-03-02T12:37:59;15.38;;;12.73;;
44428;SDS011;30134;47.866;-4.222;2024-03-02T12:40:24;17.00;;;12.27;;
44428;SDS011;30134;47.866;-4.222;2024-03-02T12:42:50;16.35;;;12.18;;
44428;SDS011;30134;47.866;-4.222;2024-03-02T12:45:16;13.82;;;10.77;;
44428;SDS011;30134;47.866;-4.222;2024-03-02T12:47:48;14.50;;;11.50;;
44428;SDS011;30134;47.866;-4.222;2024-03-02T12:50:15;12.98;;;10.43;;
44428;SDS011;30134;47.866;-4.222;2024-03-02T12:52:42;12.90;;;10.25;;
44428;SDS011;30134;47.866;-4.222;2024-03-02T12:55:08;12.10;;;9.63;;
44428;SDS011;30134;47.866;-4.222;2024-03-02T12:57:34;11.95;;;9.25;;
44428;SDS011;30134;47.866;-4.222;2024-03-02T13:00:04;14.15;;;10.35;;
44428;SDS011;30134;47.866;-4.222;2024-03-02T13:05:07;13.52;;;9.82;;
44428;SDS011;30134;47.866;-4.222;2024-03-02T13:07:36;13.52;;;10.63;;
44428;SDS011;30134;47.866;-4.222;2024-03-02T13:10:03;15.18;;;10.20;;
44428;SDS011;30134;47.866;-4.222;2024-03-02T13:12:31;12.93;;;9.85;;
44428;SDS011;30134;47.866;-4.222;2024-03-02T13:14:58;12.80;;;9.48;;
44428;SDS011;30134;47.866;-4.222;2024-03-02T13:17:24;19.58;;;10.45;;
44428;SDS011;30134;47.866;-4.222;2024-03-02T13:22:23;17.02;;;9.60;;
44428;SDS011;30134;47.866;-4.222;2024-03-02T13:24:52;17.33;;;8.95;;
44428;SDS011;30134;47.866;-4.222;2024-03-02T13:27:22;14.07;;;7.82;;
44428;SDS011;30134;47.866;-4.222;2024-03-02T13:29:48;15.52;;;8.70;;
44428;SDS011;30134;47.866;-4.222;2024-03-02T13:32:21;11.95;;;6.25;;
44428;SDS011;30134;47.866;-4.222;2024-03-02T13:34:49;8.75;;;5.60;;
44428;SDS011;30134;47.866;-4.222;2024-03-02T13:37:15;7.28;;;5.00;;
44428;SDS011;30134;47.866;-4.222;2024-03-02T13:39:41;8.98;;;4.75;;
44428;SDS011;30134;47.866;-4.222;2024-03-02T13:42:08;7.63;;;4.72;;
44428;SDS011;30134;47.866;-4.222;2024-03-02T13:44:35;8.55;;;4.05;;
44428;SDS011;30134;47.866;-4.222;2024-03-02T13:47:02;7.60;;;3.53;;
44428;SDS011;30134;47.866;-4.222;2024-03-02T13:49:29;7.10;;;3.97;;
44428;SDS011;30134;47.866;-4.222;2024-03-02T13:52:04;9.77;;;2.92;;
44428;SDS011;30134;47.866;-4.222;2024-03-02T13:54:47;5.57;;;3.58;;
44428;SDS011;30134;47.866;-4.222;2024-03-02T13:57:13;7.95;;;3.38;;
44428;SDS011;30134;47.866;-4.222;2024-03-02T13:59:40;5.25;;;3.60;;
44428;SDS011;30134;47.866;-4.222;2024-03-02T14:02:07;6.47;;;3.53;;
44428;SDS011;30134;47.866;-4.222;2024-03-02T14:04:34;3.67;;;2.92;;
44428;SDS011;30134;47.866;-4.222;2024-03-02T14:07:01;6.30;;;2.92;;
44428;SDS011;30134;47.866;-4.222;2024-03-02T14:09:28;3.95;;;2.67;;
44428;SDS011;30134;47.866;-4.222;2024-03-02T14:11:55;4.85;;;2.88;;
44428;SDS011;30134;47.866;-4.222;2024-03-02T14:14:21;5.50;;;2.83;;
44428;SDS011;30134;47.866;-4.222;2024-03-02T14:16:48;6.80;;;2.70;;
44428;SDS011;30134;47.866;-4.222;2024-03-02T14:19:14;4.95;;;2.47;;
44428;SDS011;30134;47.866;-4.222;2024-03-02T14:21:42;5.38;;;2.92;;
44428;SDS011;30134;47.866;-4.222;2024-03-02T14:24:08;12.25;;;3.10;;
44428;SDS011;30134;47.866;-4.222;2024-03-02T14:26:38;7.25;;;2.55;;
44428;SDS011;30134;47.866;-4.222;2024-03-02T14:29:04;3.17;;;2.22;;
44428;SDS011;30134;47.866;-4.222;2024-03-02T14:31:31;8.35;;;2.65;;
44428;SDS011;30134;47.866;-4.222;2024-03-02T14:34:03;4.47;;;2.60;;
44428;SDS011;30134;47.866;-4.222;2024-03-02T14:36:29;10.27;;;2.50;;
44428;SDS011;30134;47.866;-4.222;2024-03-02T14:38:55;3.20;;;2.03;;
44428;SDS011;30134;47.866;-4.222;2024-03-02T14:41:21;3.22;;;2.10;;
44428;SDS011;30134;47.866;-4.222;2024-03-02T14:43:50;4.75;;;2.10;;
44428;SDS011;30134;47.866;-4.222;2024-03-02T14:46:17;4.25;;;2.58;;
44428;SDS011;30134;47.866;-4.222;2024-03-02T14:48:43;4.53;;;2.20;;
44428;SDS011;30134;47.866;-4.222;2024-03-02T14:51:10;5.00;;;2.60;;
44428;SDS011;30134;47.866;-4.222;2024-03-02T14:53:37;4.55;;;2.05;;
44428;SDS011;30134;47.866;-4.222;2024-03-02T14:56:03;5.38;;;1.80;;